createdAt,value
2023-01-13T00:01:22.814Z,94918.00
2023-01-13T00:04:26.592Z,94927.16
2023-01-13T00:07:31.265Z,94928.63
2023-01-13T00:10:37.116Z,94949.94
2023-01-13T00:13:40.135Z,94934.75
2023-01-13T00:16:43.540Z,94937.19
2023-01-13T00:19:47.627Z,94938.91
2023-01-13T00:22:51.427Z,94934.56
2023-01-13T00:26:00.544Z,94945.13
2023-01-13T00:29:04.659Z,94937.16
2023-01-13T00:32:08.534Z,94950.56
2023-01-13T00:35:12.257Z,94953.44
2023-01-13T00:38:15.602Z,94956.63
2023-01-13T00:41:21.679Z,94962.34
2023-01-13T00:44:26.080Z,94959.47
2023-01-13T00:47:29.867Z,94964.06
2023-01-13T00:50:34.054Z,94968.38
2023-01-13T00:53:39.276Z,94970.16
2023-01-13T00:56:43.163Z,94965.09
2023-01-13T00:59:47.153Z,94963.22
2023-01-13T01:02:51.847Z,94965.72
2023-01-13T01:05:54.938Z,94960.09
2023-01-13T01:08:59.162Z,94952.19
2023-01-13T01:12:02.448Z,94957.41
2023-01-13T01:15:08.413Z,94959.00
2023-01-13T01:18:12.160Z,94960.09
2023-01-13T01:21:16.366Z,94964.63
2023-01-13T01:24:20.317Z,94982.50
2023-01-13T01:27:24.033Z,94976.47
2023-01-13T01:30:28.182Z,94982.69
2023-01-13T01:33:31.875Z,94971.09
2023-01-13T01:36:37.219Z,94962.00
2023-01-13T01:39:40.796Z,94964.75
2023-01-13T01:43:02.947Z,94968.72
2023-01-13T01:46:06.922Z,94960.44
2023-01-13T01:49:16.161Z,94970.09
2023-01-13T01:52:39.311Z,94968.28
2023-01-13T01:55:43.182Z,94964.97
2023-01-13T01:58:50.491Z,94973.75
2023-01-13T02:01:54.522Z,94971.22
2023-01-13T02:04:58.939Z,94973.75
2023-01-13T02:08:03.536Z,94978.13
2023-01-13T02:11:06.823Z,94972.09
2023-01-13T02:14:10.882Z,94965.94
2023-01-13T02:17:44.287Z,94951.59
2023-01-13T02:21:25.371Z,94963.03
2023-01-13T02:24:55.726Z,94971.56
2023-01-13T02:29:10.453Z,94971.41
2023-01-13T02:32:26.927Z,94968.13
2023-01-13T02:35:37.922Z,94964.25
2023-01-13T02:39:02.100Z,94967.50
2023-01-13T02:42:32.668Z,94978.31
2023-01-13T02:45:45.004Z,94979.16
2023-01-13T02:48:51.647Z,94979.44
2023-01-13T02:52:04.490Z,94983.22
2023-01-13T02:55:13.842Z,94968.53
2023-01-13T02:58:22.658Z,94969.97
2023-01-13T03:01:26.866Z,94972.81
2023-01-13T03:04:50.695Z,94974.22
2023-01-13T03:08:22.501Z,94977.91
2023-01-13T03:11:28.744Z,94967.31
2023-01-13T03:14:41.462Z,94965.97
2023-01-13T03:18:07.038Z,94961.31
2023-01-13T03:21:26.811Z,94970.97
2023-01-13T03:24:58.174Z,94972.28
2023-01-13T03:28:07.667Z,94968.22
2023-01-13T03:31:16.821Z,94980.47
2023-01-13T03:34:23.194Z,94968.38
2023-01-13T03:37:33.802Z,94968.34
2023-01-13T03:40:46.545Z,94966.91
2023-01-13T03:44:24.983Z,94957.41
2023-01-13T03:47:36.604Z,94962.84
2023-01-13T03:50:48.745Z,94964.13
2023-01-13T03:54:01.873Z,94962.56
2023-01-13T03:57:12.656Z,94968.69
2023-01-13T04:00:18.122Z,94957.66
2023-01-13T04:03:30.323Z,94965.03
2023-01-13T04:06:41.738Z,94955.06
2023-01-13T04:09:56.453Z,94953.22
2023-01-13T04:13:06.103Z,94957.81
2023-01-13T04:16:12.136Z,94948.06
2023-01-13T04:19:15.687Z,94941.53
2023-01-13T04:22:19.354Z,94949.94
2023-01-13T04:25:23.563Z,94946.22
2023-01-13T04:28:28.023Z,94940.06
2023-01-13T04:31:31.860Z,94924.03
2023-01-13T04:34:35.549Z,94928.41
2023-01-13T04:37:39.668Z,94918.63
2023-01-13T04:40:43.418Z,94915.72
2023-01-13T04:43:47.554Z,94916.75
2023-01-13T04:46:51.232Z,94913.72
2023-01-13T04:49:54.561Z,94914.25
2023-01-13T04:52:58.100Z,94906.16
2023-01-13T04:56:02.133Z,94912.19
2023-01-13T04:59:06.116Z,94908.69
2023-01-13T05:02:09.989Z,94908.44
2023-01-13T05:05:13.712Z,94900.63
2023-01-13T05:08:17.768Z,94892.66
2023-01-13T05:11:43.118Z,94880.94
2023-01-13T05:15:04.648Z,94886.44
2023-01-13T05:18:08.559Z,94878.88
2023-01-13T05:21:31.778Z,94889.66
2023-01-13T05:24:53.042Z,94889.47
2023-01-13T05:27:59.156Z,94876.59
2023-01-13T05:31:02.418Z,94880.19
2023-01-13T05:34:05.936Z,94874.72
2023-01-13T05:37:11.585Z,94865.75
2023-01-13T05:40:35.877Z,94871.81
2023-01-13T05:43:39.214Z,94866.19
2023-01-13T05:46:43.031Z,94866.50
2023-01-13T05:49:46.056Z,94868.00
2023-01-13T05:52:50.215Z,94870.16
2023-01-13T05:55:54.293Z,94861.78
2023-01-13T05:58:58.061Z,94854.69
2023-01-13T06:02:01.722Z,94863.81
2023-01-13T06:05:05.283Z,94861.06
2023-01-13T06:08:10.062Z,94871.84
2023-01-13T06:11:13.804Z,94865.41
2023-01-13T06:14:16.892Z,94863.16
2023-01-13T06:17:20.199Z,94874.69
2023-01-13T06:20:23.356Z,94863.53
2023-01-13T06:23:26.813Z,94869.09
2023-01-13T06:26:32.385Z,94886.06
2023-01-13T06:29:36.447Z,94878.28
2023-01-13T06:32:45.833Z,94874.50
2023-01-13T06:36:00.383Z,94875.28
2023-01-13T06:39:05.026Z,94860.00
2023-01-13T06:42:27.925Z,94874.16
2023-01-13T06:45:31.904Z,94887.63
2023-01-13T06:48:36.280Z,94892.72
2023-01-13T06:51:39.311Z,94904.75
2023-01-13T06:54:43.119Z,94888.19
2023-01-13T06:57:54.513Z,94871.72
2023-01-13T07:01:01.520Z,94875.41
2023-01-13T07:04:05.013Z,94871.25
2023-01-13T07:07:10.702Z,94874.06
2023-01-13T07:10:22.631Z,94880.47
2023-01-13T07:13:45.013Z,94891.03
2023-01-13T07:16:48.700Z,94887.00
2023-01-13T07:19:53.377Z,94879.16
2023-01-13T07:22:57.778Z,94898.47
2023-01-13T07:26:02.015Z,94899.88
2023-01-13T07:29:04.955Z,94890.81
2023-01-13T07:32:09.143Z,94886.53
2023-01-13T07:35:12.178Z,94878.63
2023-01-13T07:38:16.635Z,94876.44
2023-01-13T07:41:38.565Z,94875.63
2023-01-13T07:44:42.377Z,94873.31
2023-01-13T07:47:45.537Z,94867.97
2023-01-13T07:50:49.103Z,94878.91
2023-01-13T07:53:52.866Z,94877.50
2023-01-13T07:56:59.152Z,94864.84
2023-01-13T08:00:04.804Z,94866.84
2023-01-13T08:03:09.228Z,94865.50
2023-01-13T08:06:12.850Z,94862.00
2023-01-13T08:09:15.783Z,94859.94
2023-01-13T08:12:37.853Z,94863.56
2023-01-13T08:15:41.253Z,94864.56
2023-01-13T08:18:45.034Z,94849.16
2023-01-13T08:21:48.359Z,94858.22
2023-01-13T08:24:51.424Z,94858.09
2023-01-13T08:27:56.008Z,94862.28
2023-01-13T08:31:04.267Z,94855.91
2023-01-13T08:34:08.200Z,94862.28
2023-01-13T08:37:11.195Z,94863.97
2023-01-13T08:40:17.009Z,94863.91
2023-01-13T08:43:20.281Z,94861.16
2023-01-13T08:46:23.748Z,94868.72
2023-01-13T08:49:27.576Z,94862.03
2023-01-13T08:52:31.981Z,94860.34
2023-01-13T08:55:35.092Z,94863.72
2023-01-13T08:58:38.427Z,94852.09
2023-01-13T09:01:41.916Z,94854.16
2023-01-13T09:04:45.878Z,94858.53
2023-01-13T09:07:49.619Z,94857.94
2023-01-13T09:10:53.371Z,94860.00
2023-01-13T09:13:56.791Z,94856.28
2023-01-13T09:17:00.477Z,94851.84
2023-01-13T09:20:04.620Z,94852.28
2023-01-13T09:23:10.591Z,94858.41
2023-01-13T09:26:21.126Z,94854.22
2023-01-13T09:29:24.760Z,94860.75
2023-01-13T09:32:28.475Z,94859.78
2023-01-13T09:35:32.528Z,94854.91
2023-01-13T09:38:36.255Z,94865.50
2023-01-13T09:42:04.442Z,94857.09
2023-01-13T09:45:23.332Z,94847.75
2023-01-13T09:48:52.718Z,94858.03
2023-01-13T09:51:59.532Z,94853.03
2023-01-13T09:55:10.200Z,94854.66
2023-01-13T09:58:18.603Z,94847.50
2023-01-13T10:01:36.300Z,94859.19
2023-01-13T10:04:40.150Z,94851.31
2023-01-13T10:07:57.179Z,94855.13
2023-01-13T10:11:22.626Z,94858.22
2023-01-13T10:14:37.714Z,94856.00
2023-01-13T10:18:10.095Z,94858.72
2023-01-13T10:21:32.060Z,94862.84
2023-01-13T10:24:57.860Z,94866.09
2023-01-13T10:28:19.219Z,94854.06
2023-01-13T10:31:24.007Z,94856.28
2023-01-13T10:34:29.655Z,94867.28
2023-01-13T10:37:33.376Z,94860.41
2023-01-13T10:40:47.982Z,94868.81
2023-01-13T10:44:09.419Z,94854.25
2023-01-13T10:47:21.928Z,94855.88
2023-01-13T10:50:30.050Z,94858.72
2023-01-13T10:53:34.334Z,94856.44
2023-01-13T10:56:38.212Z,94865.91
2023-01-13T10:59:41.850Z,94871.66
2023-01-13T11:02:45.599Z,94871.97
2023-01-13T11:05:57.998Z,94873.53
2023-01-13T11:09:01.171Z,94868.06
2023-01-13T11:12:06.032Z,94863.94
2023-01-13T11:15:12.624Z,94860.28
2023-01-13T11:18:44.526Z,94868.19
2023-01-13T11:22:09.681Z,94870.84
2023-01-13T11:25:47.712Z,94871.84
2023-01-13T11:29:21.371Z,94868.31
2023-01-13T11:32:26.063Z,94858.94
2023-01-13T11:35:32.310Z,94870.56
2023-01-13T11:38:56.851Z,94867.00
2023-01-13T11:42:22.674Z,94865.09
2023-01-13T11:45:43.272Z,94863.41
2023-01-13T11:48:46.920Z,94861.97
2023-01-13T11:52:05.558Z,94854.88
2023-01-13T11:55:27.496Z,94863.84
2023-01-13T11:59:04.091Z,94847.88
2023-01-13T12:02:23.312Z,94850.41
2023-01-13T12:05:38.291Z,94849.78
2023-01-13T12:09:01.912Z,94845.81
2023-01-13T12:12:23.356Z,94853.03
2023-01-13T12:15:45.456Z,94843.78
2023-01-13T12:19:12.943Z,94845.69
2023-01-13T12:22:34.703Z,94836.56
2023-01-13T12:25:46.375Z,94845.09
2023-01-13T12:29:16.071Z,94834.16
2023-01-13T12:32:25.206Z,94840.75
2023-01-13T12:35:54.835Z,94835.44
2023-01-13T12:39:22.863Z,94843.69
2023-01-13T12:43:06.960Z,94822.53
2023-01-13T12:46:22.320Z,94832.56
2023-01-13T12:49:29.569Z,94822.72
2023-01-13T12:52:46.486Z,94816.41
2023-01-13T12:55:53.728Z,94817.97
2023-01-13T12:59:30.149Z,94810.69
2023-01-13T13:02:40.339Z,94806.44
2023-01-13T13:06:15.359Z,94806.16
2023-01-13T13:09:38.169Z,94805.63
2023-01-13T13:13:00.868Z,94804.19
2023-01-13T13:16:36.692Z,94800.16
2023-01-13T13:19:41.686Z,94801.97
2023-01-13T13:22:51.869Z,94800.47
2023-01-13T13:26:17.288Z,94800.78
2023-01-13T13:29:36.036Z,94796.03
2023-01-13T13:33:16.277Z,94797.50
2023-01-13T13:36:40.333Z,94785.31
2023-01-13T13:40:04.445Z,94785.84
2023-01-13T13:43:32.477Z,94780.19
2023-01-13T13:46:49.736Z,94776.88
2023-01-13T13:49:55.039Z,94771.84
2023-01-13T13:53:08.036Z,94766.81
2023-01-13T13:56:22.101Z,94774.75
2023-01-13T13:59:31.094Z,94774.41
2023-01-13T14:02:37.618Z,94770.66
2023-01-13T14:05:41.583Z,94779.00
2023-01-13T14:08:50.830Z,94769.09
2023-01-13T14:12:16.131Z,94767.72
2023-01-13T14:15:36.152Z,94762.56
2023-01-13T14:18:46.359Z,94764.56
2023-01-13T14:21:49.473Z,94758.28
2023-01-13T14:24:58.080Z,94745.84
2023-01-13T14:28:22.397Z,94762.91
2023-01-13T14:31:25.822Z,94759.13
2023-01-13T14:34:32.936Z,94758.19
2023-01-13T14:37:40.559Z,94758.84
2023-01-13T14:40:46.099Z,94753.50
2023-01-13T14:43:51.392Z,94754.06
2023-01-13T14:46:57.137Z,94749.78
2023-01-13T14:50:08.419Z,94747.66
2023-01-13T14:53:39.287Z,94740.66
2023-01-13T14:56:52.307Z,94744.00
2023-01-13T15:00:08.484Z,94746.41
2023-01-13T15:03:16.132Z,94742.69
2023-01-13T15:06:24.885Z,94738.22
2023-01-13T15:09:42.530Z,94741.47
2023-01-13T15:12:50.439Z,94739.09
2023-01-13T15:15:56.048Z,94734.16
2023-01-13T15:18:59.959Z,94733.03
2023-01-13T15:22:03.082Z,94736.69
2023-01-13T15:25:06.755Z,94719.22
2023-01-13T15:28:21.853Z,94716.63
2023-01-13T15:31:27.628Z,94725.13
2023-01-13T15:34:30.964Z,94722.81
2023-01-13T15:37:34.896Z,94703.91
2023-01-13T15:40:38.657Z,94709.81
2023-01-13T15:44:00.215Z,94716.91
2023-01-13T15:47:07.097Z,94713.94
2023-01-13T15:50:19.836Z,94710.88
2023-01-13T15:53:24.686Z,94705.22
2023-01-13T15:56:27.844Z,94701.47
2023-01-13T15:59:32.053Z,94700.06
2023-01-13T16:02:35.940Z,94695.19
2023-01-13T16:05:40.940Z,94689.66
2023-01-13T16:08:44.711Z,94686.94
2023-01-13T16:11:48.832Z,94655.09
2023-01-13T16:14:52.659Z,94678.09
2023-01-13T16:17:59.367Z,94670.88
2023-01-13T16:21:03.177Z,94671.91
2023-01-13T16:24:07.344Z,94668.34
2023-01-13T16:27:37.563Z,94669.47
2023-01-13T16:30:40.993Z,94663.75
2023-01-13T16:33:44.144Z,94659.22
2023-01-13T16:36:47.913Z,94652.28
2023-01-13T16:39:51.129Z,94654.75
2023-01-13T16:42:54.286Z,94651.50
2023-01-13T16:45:57.486Z,94646.75
2023-01-13T16:49:04.971Z,94648.78
2023-01-13T16:52:08.914Z,94642.47
2023-01-13T16:55:12.589Z,94649.56
2023-01-13T16:58:19.672Z,94648.78
2023-01-13T17:01:31.571Z,94644.41
2023-01-13T17:04:35.248Z,94645.16
2023-01-13T17:07:39.139Z,94656.09
2023-01-13T17:10:43.360Z,94643.34
2023-01-13T17:13:46.471Z,94645.00
2023-01-13T17:16:51.960Z,94652.56
2023-01-13T17:19:55.881Z,94643.22
2023-01-13T17:22:59.256Z,94641.25
2023-01-13T17:26:02.273Z,94642.25
2023-01-13T17:29:07.330Z,94644.41
2023-01-13T17:32:16.698Z,94641.44
2023-01-13T17:35:25.506Z,94625.31
2023-01-13T17:38:29.250Z,94624.78
2023-01-13T17:41:32.905Z,94628.38
2023-01-13T17:44:36.673Z,94627.81
2023-01-13T17:47:40.693Z,94625.78
2023-01-13T17:50:48.421Z,94618.22
2023-01-13T17:53:54.444Z,94619.00
2023-01-13T17:56:57.552Z,94609.47
2023-01-13T18:00:01.749Z,94608.22
2023-01-13T18:03:18.427Z,94597.06
2023-01-13T18:06:24.053Z,94607.41
2023-01-13T18:09:27.323Z,94595.69
2023-01-13T18:12:30.397Z,94606.94
2023-01-13T18:15:33.802Z,94595.69
2023-01-13T18:18:37.874Z,94596.31
2023-01-13T18:21:59.468Z,94587.09
2023-01-13T18:25:22.124Z,94578.84
2023-01-13T18:28:25.223Z,94576.94
2023-01-13T18:31:29.332Z,94563.91
2023-01-13T18:34:32.399Z,94562.16
2023-01-13T18:37:36.622Z,94553.03
2023-01-13T18:40:39.640Z,94559.16
2023-01-13T18:43:42.934Z,94561.56
2023-01-13T18:46:46.069Z,94557.94
2023-01-13T18:49:49.431Z,94551.53
2023-01-13T18:52:53.513Z,94549.81
2023-01-13T18:55:56.945Z,94549.44
2023-01-13T18:59:02.216Z,94552.94
2023-01-13T19:02:09.982Z,94545.06
2023-01-13T19:05:14.796Z,94540.06
2023-01-13T19:08:18.110Z,94538.94
2023-01-13T19:11:22.804Z,94533.31
2023-01-13T19:14:36.290Z,94532.38
2023-01-13T19:17:39.636Z,94513.69
2023-01-13T19:20:44.836Z,94518.44
2023-01-13T19:23:48.012Z,94507.63
2023-01-13T19:26:51.393Z,94514.94
2023-01-13T19:29:58.687Z,94507.81
2023-01-13T19:33:02.484Z,94505.06
2023-01-13T19:36:06.834Z,94498.56
2023-01-13T19:39:11.089Z,94500.47
2023-01-13T19:42:32.937Z,94494.03
2023-01-13T19:45:36.869Z,94479.56
2023-01-13T19:48:40.768Z,94482.91
2023-01-13T19:51:44.327Z,94474.41
2023-01-13T19:54:48.120Z,94467.66
2023-01-13T19:57:51.460Z,94478.78
2023-01-13T20:00:55.740Z,94464.81
2023-01-13T20:04:04.199Z,94472.75
2023-01-13T20:07:08.239Z,94464.66
2023-01-13T20:10:14.085Z,94466.03
2023-01-13T20:13:17.858Z,94455.44
2023-01-13T20:16:21.221Z,94445.28
2023-01-13T20:19:24.609Z,94439.31
2023-01-13T20:22:27.638Z,94436.88
2023-01-13T20:25:31.103Z,94437.78
2023-01-13T20:28:38.016Z,94433.69
2023-01-13T20:31:41.763Z,94420.84
2023-01-13T20:34:45.167Z,94420.53
2023-01-13T20:37:48.866Z,94411.13
2023-01-13T20:41:22.427Z,94401.53
2023-01-13T20:44:25.569Z,94394.25
2023-01-13T20:47:30.133Z,94400.44
2023-01-13T20:50:33.973Z,94392.56
2023-01-13T20:53:37.809Z,94395.25
2023-01-13T20:56:41.580Z,94392.00
2023-01-13T20:59:44.998Z,94383.75
2023-01-13T21:02:48.119Z,94378.38
2023-01-13T21:05:51.398Z,94385.53
2023-01-13T21:08:55.350Z,94388.28
2023-01-13T21:12:17.178Z,94363.50
2023-01-13T21:15:22.401Z,94379.16
2023-01-13T21:18:44.567Z,94370.44
2023-01-13T21:21:47.850Z,94381.22
2023-01-13T21:24:51.407Z,94379.16
2023-01-13T21:27:56.004Z,94376.03
2023-01-13T21:31:09.617Z,94387.56
2023-01-13T21:34:13.445Z,94384.78
2023-01-13T21:37:18.465Z,94377.25
2023-01-13T21:40:23.216Z,94372.50
2023-01-13T21:43:44.729Z,94379.94
2023-01-13T21:47:06.030Z,94376.31
2023-01-13T21:50:11.763Z,94374.22
2023-01-13T21:53:14.807Z,94375.88
2023-01-13T21:56:18.349Z,94375.38
2023-01-13T21:59:22.028Z,94366.47
2023-01-13T22:02:36.674Z,94353.06
2023-01-13T22:05:40.820Z,94344.50
2023-01-13T22:08:45.216Z,94314.34
2023-01-13T22:11:48.282Z,94332.78
2023-01-13T22:14:55.364Z,94334.09
2023-01-13T22:17:58.416Z,94329.72
2023-01-13T22:21:02.275Z,94322.19
2023-01-13T22:24:06.327Z,94323.09
2023-01-13T22:27:12.082Z,94319.75
2023-01-13T22:30:18.719Z,94315.66
2023-01-13T22:33:21.725Z,94308.81
2023-01-13T22:36:24.882Z,94311.22
2023-01-13T22:39:28.018Z,94302.81
2023-01-13T22:42:31.245Z,94304.06
2023-01-13T22:45:35.111Z,94310.13
2023-01-13T22:48:39.859Z,94303.84
2023-01-13T22:51:44.094Z,94304.28
2023-01-13T22:54:47.843Z,94303.84
2023-01-13T22:57:51.368Z,94307.00
2023-01-13T23:00:55.599Z,94300.47
2023-01-13T23:04:00.431Z,94322.56
2023-01-13T23:07:03.560Z,94320.88
2023-01-13T23:10:07.264Z,94313.53
2023-01-13T23:13:10.733Z,94316.41
2023-01-13T23:16:18.121Z,94320.16
2023-01-13T23:19:21.790Z,94313.47
2023-01-13T23:22:25.138Z,94307.53
2023-01-13T23:25:28.596Z,94301.00
2023-01-13T23:28:34.456Z,94308.22
2023-01-13T23:31:39.133Z,94309.38
2023-01-13T23:34:42.092Z,94291.06
2023-01-13T23:37:45.439Z,94314.88
2023-01-13T23:40:48.506Z,94326.00
2023-01-13T23:44:00.534Z,94327.41
2023-01-13T23:47:04.257Z,94311.41
2023-01-13T23:50:08.531Z,94319.41
2023-01-13T23:53:12.163Z,94322.03
2023-01-13T23:56:18.191Z,94326.59
2023-01-13T23:59:21.723Z,94325.59
